sensor_id;sensor_type;location;lat;lon;timestamp;pressure;altitude;pressure_sealevel;temperature;humidity
57288;BME280;43141;52.010;4.362;2022-08-07T00:01:18;102756.88;;;16.20;61.60
57288;BME280;43141;52.010;4.362;2022-08-07T00:03:44;102774.44;;;16.19;61.62
57288;BME280;43141;52.010;4.362;2022-08-07T00:06:12;102762.59;;;16.18;61.67
57288;BME280;43141;52.010;4.362;2022-08-07T00:08:41;102764.47;;;16.18;61.87
57288;BME280;43141;52.010;4.362;2022-08-07T00:11:07;102758.59;;;16.14;61.93
57288;BME280;43141;52.010;4.362;2022-08-07T00:13:32;102768.13;;;16.11;62.13
57288;BME280;43141;52.010;4.362;2022-08-07T00:16:01;102753.72;;;16.09;62.13
57288;BME280;43141;52.010;4.362;2022-08-07T00:18:27;102760.06;;;16.10;61.95
57288;BME280;43141;52.010;4.362;2022-08-07T00:20:57;102755.25;;;16.05;62.27
57288;BME280;43141;52.010;4.362;2022-08-07T00:23:26;102751.66;;;16.05;62.48
57288;BME280;43141;52.010;4.362;2022-08-07T00:25:55;102759.31;;;15.96;62.47
57288;BME280;43141;52.010;4.362;2022-08-07T00:28:20;102758.25;;;15.97;62.53
57288;BME280;43141;52.010;4.362;2022-08-07T00:30:46;102752.97;;;15.95;62.69
57288;BME280;43141;52.010;4.362;2022-08-07T00:33:12;102746.81;;;15.93;62.72
57288;BME280;43141;52.010;4.362;2022-08-07T00:35:38;102749.81;;;15.92;62.86
57288;BME280;43141;52.010;4.362;2022-08-07T00:38:03;102751.50;;;15.93;62.77
57288;BME280;43141;52.010;4.362;2022-08-07T00:40:29;102747.69;;;15.87;62.91
57288;BME280;43141;52.010;4.362;2022-08-07T00:42:55;102746.63;;;15.88;62.88
57288;BME280;43141;52.010;4.362;2022-08-07T00:45:21;102739.44;;;15.87;62.94
57288;BME280;43141;52.010;4.362;2022-08-07T00:47:47;102744.72;;;15.89;62.99
57288;BME280;43141;52.010;4.362;2022-08-07T00:50:14;102748.13;;;15.84;62.88
57288;BME280;43141;52.010;4.362;2022-08-07T00:52:40;102743.47;;;15.85;63.00
57288;BME280;43141;52.010;4.362;2022-08-07T00:55:06;102744.09;;;15.80;63.26
57288;BME280;43141;52.010;4.362;2022-08-07T00:57:32;102737.13;;;15.77;63.32
57288;BME280;43141;52.010;4.362;2022-08-07T01:00:03;102733.72;;;15.75;63.46
57288;BME280;43141;52.010;4.362;2022-08-07T01:02:30;102736.50;;;15.75;63.46
57288;BME280;43141;52.010;4.362;2022-08-07T01:04:56;102733.31;;;15.72;63.59
57288;BME280;43141;52.010;4.362;2022-08-07T01:07:22;102737.56;;;15.68;63.78
57288;BME280;43141;52.010;4.362;2022-08-07T01:09:47;102726.19;;;15.64;63.75
57288;BME280;43141;52.010;4.362;2022-08-07T01:12:13;102725.09;;;15.65;64.08
57288;BME280;43141;52.010;4.362;2022-08-07T01:14:40;102731.72;;;15.57;64.27
57288;BME280;43141;52.010;4.362;2022-08-07T01:17:06;102720.03;;;15.62;64.22
57288;BME280;43141;52.010;4.362;2022-08-07T01:19:32;102725.34;;;15.57;64.22
57288;BME280;43141;52.010;4.362;2022-08-07T01:21:58;102735.06;;;15.59;64.54
57288;BME280;43141;52.010;4.362;2022-08-07T01:24:26;102731.47;;;15.59;64.39
57288;BME280;43141;52.010;4.362;2022-08-07T01:26:53;102726.38;;;15.56;64.35
57288;BME280;43141;52.010;4.362;2022-08-07T01:29:21;102723.25;;;15.52;64.39
57288;BME280;43141;52.010;4.362;2022-08-07T01:31:48;102723.44;;;15.51;64.42
57288;BME280;43141;52.010;4.362;2022-08-07T01:34:13;102730.22;;;15.48;64.69
57288;BME280;43141;52.010;4.362;2022-08-07T01:36:41;102719.88;;;15.43;64.55
57288;BME280;43141;52.010;4.362;2022-08-07T01:39:07;102722.00;;;15.41;64.65
57288;BME280;43141;52.010;4.362;2022-08-07T01:41:32;102725.81;;;15.40;64.83
57288;BME280;43141;52.010;4.362;2022-08-07T01:43:58;102723.28;;;15.39;64.69
57288;BME280;43141;52.010;4.362;2022-08-07T01:46:24;102720.13;;;15.35;64.88
57288;BME280;43141;52.010;4.362;2022-08-07T01:48:50;102725.41;;;15.37;64.97
57288;BME280;43141;52.010;4.362;2022-08-07T01:51:17;102725.63;;;15.35;65.00
57288;BME280;43141;52.010;4.362;2022-08-07T01:53:47;102721.41;;;15.33;65.28
57288;BME280;43141;52.010;4.362;2022-08-07T01:56:30;102729.66;;;15.33;65.40
57288;BME280;43141;52.010;4.362;2022-08-07T01:59:05;102717.78;;;15.32;65.21
57288;BME280;43141;52.010;4.362;2022-08-07T02:01:39;102719.94;;;15.30;65.33
57288;BME280;43141;52.010;4.362;2022-08-07T02:04:25;102716.53;;;15.28;65.21
57288;BME280;43141;52.010;4.362;2022-08-07T02:06:56;102712.53;;;15.24;65.48
57288;BME280;43141;52.010;4.362;2022-08-07T02:09:25;102714.44;;;15.23;65.52
57288;BME280;43141;52.010;4.362;2022-08-07T02:11:53;102718.69;;;15.19;65.51
57288;BME280;43141;52.010;4.362;2022-08-07T02:14:21;102713.38;;;15.18;65.44
57288;BME280;43141;52.010;4.362;2022-08-07T02:16:50;102709.16;;;15.15;65.40
57288;BME280;43141;52.010;4.362;2022-08-07T02:19:18;102711.50;;;15.11;65.57
57288;BME280;43141;52.010;4.362;2022-08-07T02:21:46;102710.84;;;15.09;65.62
57288;BME280;43141;52.010;4.362;2022-08-07T02:24:12;102706.84;;;15.05;65.72
57288;BME280;43141;52.010;4.362;2022-08-07T02:26:39;102696.69;;;15.06;65.87
57288;BME280;43141;52.010;4.362;2022-08-07T02:29:05;102699.88;;;15.03;65.81
57288;BME280;43141;52.010;4.362;2022-08-07T02:31:34;102692.69;;;15.02;65.98
57288;BME280;43141;52.010;4.362;2022-08-07T02:34:02;102697.75;;;14.98;66.04
57288;BME280;43141;52.010;4.362;2022-08-07T02:36:29;102688.25;;;14.94;65.97
57288;BME280;43141;52.010;4.362;2022-08-07T02:38:57;102695.66;;;14.93;66.09
57288;BME280;43141;52.010;4.362;2022-08-07T02:41:25;102692.47;;;14.90;65.78
57288;BME280;43141;52.010;4.362;2022-08-07T02:43:52;102706.00;;;14.91;65.99
57288;BME280;43141;52.010;4.362;2022-08-07T02:46:20;102701.59;;;14.90;66.10
57288;BME280;43141;52.010;4.362;2022-08-07T02:48:49;102706.22;;;14.90;66.12
57288;BME280;43141;52.010;4.362;2022-08-07T02:51:16;102696.28;;;14.89;66.14
57288;BME280;43141;52.010;4.362;2022-08-07T02:53:45;102701.16;;;14.87;66.36
57288;BME280;43141;52.010;4.362;2022-08-07T02:56:18;102703.28;;;14.85;66.33
57288;BME280;43141;52.010;4.362;2022-08-07T02:58:46;102698.22;;;14.82;66.21
57288;BME280;43141;52.010;4.362;2022-08-07T03:01:15;102693.53;;;14.82;66.32
57288;BME280;43141;52.010;4.362;2022-08-07T03:03:42;102692.94;;;14.80;66.37
57288;BME280;43141;52.010;4.362;2022-08-07T03:06:10;102693.16;;;14.78;66.46
57288;BME280;43141;52.010;4.362;2022-08-07T03:08:36;102688.69;;;14.77;66.30
57288;BME280;43141;52.010;4.362;2022-08-07T03:11:02;102689.97;;;14.75;66.53
57288;BME280;43141;52.010;4.362;2022-08-07T03:13:28;102694.00;;;14.72;66.50
57288;BME280;43141;52.010;4.362;2022-08-07T03:15:53;102693.56;;;14.69;66.55
57288;BME280;43141;52.010;4.362;2022-08-07T03:18:19;102688.28;;;14.67;66.63
57288;BME280;43141;52.010;4.362;2022-08-07T03:20:46;102683.00;;;14.66;66.66
57288;BME280;43141;52.010;4.362;2022-08-07T03:23:12;102684.06;;;14.65;66.64
57288;BME280;43141;52.010;4.362;2022-08-07T03:25:38;102691.84;;;14.61;66.78
57288;BME280;43141;52.010;4.362;2022-08-07T03:28:06;102688.69;;;14.57;66.95
57288;BME280;43141;52.010;4.362;2022-08-07T03:30:36;102686.97;;;14.56;66.80
57288;BME280;43141;52.010;4.362;2022-08-07T03:33:03;102684.44;;;14.55;67.11
57288;BME280;43141;52.010;4.362;2022-08-07T03:35:32;102685.28;;;14.55;67.09
57288;BME280;43141;52.010;4.362;2022-08-07T03:38:02;102685.50;;;14.54;67.13
57288;BME280;43141;52.010;4.362;2022-08-07T03:40:31;102681.91;;;14.53;67.13
57288;BME280;43141;52.010;4.362;2022-08-07T03:42:56;102673.88;;;14.52;67.11
57288;BME280;43141;52.010;4.362;2022-08-07T03:45:25;102677.66;;;14.51;67.05
57288;BME280;43141;52.010;4.362;2022-08-07T03:47:52;102670.91;;;14.46;67.12
57288;BME280;43141;52.010;4.362;2022-08-07T03:50:18;102679.78;;;14.42;67.12
57288;BME280;43141;52.010;4.362;2022-08-07T03:52:44;102675.13;;;14.42;67.26
57288;BME280;43141;52.010;4.362;2022-08-07T03:55:12;102669.41;;;14.37;67.43
57288;BME280;43141;52.010;4.362;2022-08-07T03:57:38;102666.28;;;14.34;67.35
57288;BME280;43141;52.010;4.362;2022-08-07T04:00:06;102673.44;;;14.28;67.47
57288;BME280;43141;52.010;4.362;2022-08-07T04:02:33;102675.97;;;14.29;67.55
57288;BME280;43141;52.010;4.362;2022-08-07T04:04:59;102677.88;;;14.29;67.80
57288;BME280;43141;52.010;4.362;2022-08-07T04:07:25;102678.91;;;14.28;67.80
57288;BME280;43141;52.010;4.362;2022-08-07T04:09:51;102679.78;;;14.28;67.87
57288;BME280;43141;52.010;4.362;2022-08-07T04:12:17;102680.84;;;14.27;67.83
57288;BME280;43141;52.010;4.362;2022-08-07T04:14:42;102683.56;;;14.27;67.83
57288;BME280;43141;52.010;4.362;2022-08-07T04:17:09;102669.63;;;14.29;68.02
57288;BME280;43141;52.010;4.362;2022-08-07T04:19:35;102674.28;;;14.28;67.79
57288;BME280;43141;52.010;4.362;2022-08-07T04:22:05;102677.22;;;14.27;67.97
57288;BME280;43141;52.010;4.362;2022-08-07T04:24:30;102676.59;;;14.25;67.85
57288;BME280;43141;52.010;4.362;2022-08-07T04:26:57;102677.22;;;14.27;68.08
57288;BME280;43141;52.010;4.362;2022-08-07T04:29:26;102675.56;;;14.26;68.08
57288;BME280;43141;52.010;4.362;2022-08-07T04:31:51;102680.41;;;14.24;68.15
57288;BME280;43141;52.010;4.362;2022-08-07T04:34:17;102678.47;;;14.24;68.17
57288;BME280;43141;52.010;4.362;2022-08-07T04:36:45;102682.31;;;14.23;68.29
57288;BME280;43141;52.010;4.362;2022-08-07T04:39:10;102687.59;;;14.25;68.47
57288;BME280;43141;52.010;4.362;2022-08-07T04:41:36;102686.94;;;14.23;68.33
57288;BME280;43141;52.010;4.362;2022-08-07T04:44:02;102693.06;;;14.25;68.37
57288;BME280;43141;52.010;4.362;2022-08-07T04:54:51;102696.25;;;14.28;68.53
57288;BME280;43141;52.010;4.362;2022-08-07T04:57:41;102704.50;;;14.28;68.45
57288;BME280;43141;52.010;4.362;2022-08-07T05:00:16;102697.53;;;14.33;68.39
57288;BME280;43141;52.010;4.362;2022-08-07T05:05:22;102697.09;;;14.36;68.49
57288;BME280;43141;52.010;4.362;2022-08-07T05:10:41;102709.13;;;14.35;68.64
57288;BME280;43141;52.010;4.362;2022-08-07T05:15:36;102699.44;;;14.45;68.68
57288;BME280;43141;52.010;4.362;2022-08-07T05:18:06;102705.13;;;14.51;68.81
57288;BME280;43141;52.010;4.362;2022-08-07T05:20:41;102701.78;;;14.55;69.00
57288;BME280;43141;52.010;4.362;2022-08-07T05:23:18;102700.28;;;14.59;68.90
57288;BME280;43141;52.010;4.362;2022-08-07T05:25:46;102703.28;;;14.65;68.83
57288;BME280;43141;52.010;4.362;2022-08-07T05:28:15;102704.75;;;14.67;68.97
57288;BME280;43141;52.010;4.362;2022-08-07T05:30:41;102711.31;;;14.66;68.97
57288;BME280;43141;52.010;4.362;2022-08-07T05:33:08;102708.34;;;14.68;69.05
57288;BME280;43141;52.010;4.362;2022-08-07T05:35:37;102714.47;;;14.70;69.09
57288;BME280;43141;52.010;4.362;2022-08-07T05:38:04;102718.28;;;14.69;69.08
57288;BME280;43141;52.010;4.362;2022-08-07T05:40:35;102717.66;;;14.73;69.18
57288;BME280;43141;52.010;4.362;2022-08-07T05:43:01;102715.97;;;14.79;68.90
57288;BME280;43141;52.010;4.362;2022-08-07T05:45:27;102707.72;;;14.86;69.11
57288;BME280;43141;52.010;4.362;2022-08-07T05:47:52;102710.66;;;14.91;68.91
57288;BME280;43141;52.010;4.362;2022-08-07T05:50:19;102707.69;;;14.99;68.87
57288;BME280;43141;52.010;4.362;2022-08-07T05:52:45;102706.00;;;15.05;68.68
57288;BME280;43141;52.010;4.362;2022-08-07T05:55:11;102707.28;;;15.09;68.56
57288;BME280;43141;52.010;4.362;2022-08-07T05:57:36;102706.84;;;15.12;68.63
57288;BME280;43141;52.010;4.362;2022-08-07T06:00:12;102711.06;;;15.15;68.74
57288;BME280;43141;52.010;4.362;2022-08-07T06:02:38;102717.22;;;15.17;68.84
57288;BME280;43141;52.010;4.362;2022-08-07T06:05:07;102720.78;;;15.17;68.74
57288;BME280;43141;52.010;4.362;2022-08-07T06:07:35;102710.44;;;15.19;68.95
57288;BME280;43141;52.010;4.362;2022-08-07T06:10:01;102708.31;;;15.21;68.95
57288;BME280;43141;52.010;4.362;2022-08-07T06:12:27;102711.25;;;15.26;68.94
57288;BME280;43141;52.010;4.362;2022-08-07T06:14:54;102714.22;;;15.32;69.03
57288;BME280;43141;52.010;4.362;2022-08-07T06:17:22;102714.84;;;15.34;68.96
57288;BME280;43141;52.010;4.362;2022-08-07T06:19:48;102715.25;;;15.37;69.02
57288;BME280;43141;52.010;4.362;2022-08-07T06:22:15;102725.81;;;15.40;69.06
57288;BME280;43141;52.010;4.362;2022-08-07T06:24:42;102728.56;;;15.47;69.02
57288;BME280;43141;52.010;4.362;2022-08-07T06:27:08;102717.94;;;15.51;69.06
57288;BME280;43141;52.010;4.362;2022-08-07T06:29:33;102717.75;;;15.52;68.89
57288;BME280;43141;52.010;4.362;2022-08-07T06:31:59;102719.00;;;15.56;69.01
57288;BME280;43141;52.010;4.362;2022-08-07T06:34:25;102722.16;;;15.60;68.99
57288;BME280;43141;52.010;4.362;2022-08-07T06:36:52;102726.81;;;15.59;69.05
57288;BME280;43141;52.010;4.362;2022-08-07T06:39:19;102719.41;;;15.60;69.04
57288;BME280;43141;52.010;4.362;2022-08-07T06:42:03;102720.03;;;15.62;69.14
57288;BME280;43141;52.010;4.362;2022-08-07T06:44:32;102724.44;;;15.70;68.96
57288;BME280;43141;52.010;4.362;2022-08-07T06:46:59;102726.75;;;15.73;68.91
57288;BME280;43141;52.010;4.362;2022-08-07T06:49:26;102724.00;;;15.73;68.76
57288;BME280;43141;52.010;4.362;2022-08-07T06:51:51;102731.22;;;15.74;68.51
57288;BME280;43141;52.010;4.362;2022-08-07T06:54:19;102725.47;;;15.75;68.73
57288;BME280;43141;52.010;4.362;2022-08-07T06:56:49;102721.91;;;15.82;68.69
57288;BME280;43141;52.010;4.362;2022-08-07T06:59:48;102717.63;;;15.86;68.56
57288;BME280;43141;52.010;4.362;2022-08-07T07:02:12;102718.25;;;15.94;67.78
57288;BME280;43141;52.010;4.362;2022-08-07T07:04:42;102720.31;;;15.99;67.31
57288;BME280;43141;52.010;4.362;2022-08-07T07:07:09;102723.44;;;16.09;67.30
57288;BME280;43141;52.010;4.362;2022-08-07T07:09:35;102735.28;;;16.17;67.12
57288;BME280;43141;52.010;4.362;2022-08-07T07:14:46;102737.09;;;16.29;66.67
57288;BME280;43141;52.010;4.362;2022-08-07T07:18:04;102726.66;;;16.38;66.50
57288;BME280;43141;52.010;4.362;2022-08-07T07:20:11;102729.38;;;16.45;66.57
57288;BME280;43141;52.010;4.362;2022-08-07T07:22:40;102722.09;;;16.51;66.34
57288;BME280;43141;52.010;4.362;2022-08-07T07:25:08;102723.38;;;16.55;66.83
57288;BME280;43141;52.010;4.362;2022-08-07T07:27:39;102730.78;;;16.54;66.25
57288;BME280;43141;52.010;4.362;2022-08-07T07:30:08;102732.88;;;16.59;66.34
57288;BME280;43141;52.010;4.362;2022-08-07T07:32:36;102725.63;;;16.65;65.82
57288;BME280;43141;52.010;4.362;2022-08-07T07:35:04;102725.16;;;16.68;65.93
57288;BME280;43141;52.010;4.362;2022-08-07T07:37:32;102717.06;;;16.73;65.56
57288;BME280;43141;52.010;4.362;2022-08-07T07:40:01;102717.88;;;16.80;64.69
57288;BME280;43141;52.010;4.362;2022-08-07T07:42:30;102714.00;;;16.88;64.92
57288;BME280;43141;52.010;4.362;2022-08-07T07:45:01;102715.63;;;16.95;64.92
57288;BME280;43141;52.010;4.362;2022-08-07T07:47:30;102712.88;;;16.95;64.80
57288;BME280;43141;52.010;4.362;2022-08-07T07:50:00;102712.84;;;17.02;64.70
57288;BME280;43141;52.010;4.362;2022-08-07T07:52:27;102709.59;;;17.05;64.83
57288;BME280;43141;52.010;4.362;2022-08-07T07:54:54;102709.13;;;17.08;64.85
57288;BME280;43141;52.010;4.362;2022-08-07T07:57:21;102707.41;;;17.14;64.72
57288;BME280;43141;52.010;4.362;2022-08-07T07:59:48;102709.94;;;17.16;64.70
57288;BME280;43141;52.010;4.362;2022-08-07T08:02:15;102709.00;;;17.22;64.49
57288;BME280;43141;52.010;4.362;2022-08-07T08:07:40;102699.66;;;17.41;63.83
57288;BME280;43141;52.010;4.362;2022-08-07T08:10:08;102711.47;;;17.49;63.83
57288;BME280;43141;52.010;4.362;2022-08-07T08:12:35;102697.38;;;17.57;63.68
57288;BME280;43141;52.010;4.362;2022-08-07T08:15:01;102697.75;;;17.60;63.69
57288;BME280;43141;52.010;4.362;2022-08-07T08:17:27;102696.84;;;17.67;63.50
57288;BME280;43141;52.010;4.362;2022-08-07T08:20:00;102694.00;;;17.73;63.83
57288;BME280;43141;52.010;4.362;2022-08-07T08:22:28;102699.03;;;17.76;63.41
57288;BME280;43141;52.010;4.362;2022-08-07T08:25:13;102692.28;;;17.72;63.49
57288;BME280;43141;52.010;4.362;2022-08-07T08:28:02;102691.38;;;17.78;63.08
57288;BME280;43141;52.010;4.362;2022-08-07T08:30:33;102695.94;;;17.85;63.02
57288;BME280;43141;52.010;4.362;2022-08-07T08:33:00;102702.84;;;17.94;62.90
57288;BME280;43141;52.010;4.362;2022-08-07T08:35:29;102699.41;;;17.99;62.30
57288;BME280;43141;52.010;4.362;2022-08-07T08:37:58;102696.41;;;18.00;62.29
57288;BME280;43141;52.010;4.362;2022-08-07T08:40:34;102699.78;;;18.02;62.51
57288;BME280;43141;52.010;4.362;2022-08-07T08:45:33;102689.13;;;18.18;62.31
57288;BME280;43141;52.010;4.362;2022-08-07T08:48:07;102690.72;;;18.25;61.75
57288;BME280;43141;52.010;4.362;2022-08-07T08:55:37;102678.25;;;18.35;60.95
57288;BME280;43141;52.010;4.362;2022-08-07T08:58:13;102675.25;;;18.36;61.26
57288;BME280;43141;52.010;4.362;2022-08-07T09:00:42;102681.38;;;18.38;60.56
57288;BME280;43141;52.010;4.362;2022-08-07T09:05:58;102682.00;;;18.40;57.90
57288;BME280;43141;52.010;4.362;2022-08-07T09:11:22;102687.66;;;18.57;58.12
57288;BME280;43141;52.010;4.362;2022-08-07T09:22:33;102681.69;;;18.72;56.85
57288;BME280;43141;52.010;4.362;2022-08-07T09:25:06;102681.94;;;18.83;55.09
57288;BME280;43141;52.010;4.362;2022-08-07T09:30:41;102669.31;;;18.87;57.08
57288;BME280;43141;52.010;4.362;2022-08-07T09:38:57;102673.88;;;18.93;55.53
57288;BME280;43141;52.010;4.362;2022-08-07T09:44:47;102665.56;;;19.17;55.98
57288;BME280;43141;52.010;4.362;2022-08-07T09:53:01;102666.25;;;19.36;56.02
57288;BME280;43141;52.010;4.362;2022-08-07T10:32:13;102632.63;;;19.85;54.09
57288;BME280;43141;52.010;4.362;2022-08-07T10:35:13;102623.69;;;19.95;53.80
57288;BME280;43141;52.010;4.362;2022-08-07T10:40:20;102609.34;;;19.98;54.58
57288;BME280;43141;52.010;4.362;2022-08-07T10:42:56;102614.81;;;20.09;52.69
57288;BME280;43141;52.010;4.362;2022-08-07T10:45:37;102620.78;;;20.18;50.07
57288;BME280;43141;52.010;4.362;2022-08-07T10:53:29;102611.78;;;20.28;51.24
57288;BME280;43141;52.010;4.362;2022-08-07T10:56:08;102615.16;;;20.30;49.62
57288;BME280;43141;52.010;4.362;2022-08-07T10:59:14;102606.34;;;20.33;50.40
57288;BME280;43141;52.010;4.362;2022-08-07T11:01:50;102600.78;;;20.33;50.84
57288;BME280;43141;52.010;4.362;2022-08-07T11:07:10;102592.63;;;20.43;50.33
57288;BME280;43141;52.010;4.362;2022-08-07T11:10:00;102595.50;;;20.49;49.50
57288;BME280;43141;52.010;4.362;2022-08-07T11:12:35;102594.97;;;20.52;49.81
57288;BME280;43141;52.010;4.362;2022-08-07T11:15:08;102593.63;;;20.54;47.99
57288;BME280;43141;52.010;4.362;2022-08-07T11:17:40;102597.56;;;20.58;48.48
57288;BME280;43141;52.010;4.362;2022-08-07T11:20:19;102594.13;;;20.68;46.76
57288;BME280;43141;52.010;4.362;2022-08-07T11:25:39;102589.16;;;20.70;46.05
57288;BME280;43141;52.010;4.362;2022-08-07T11:30:53;102584.94;;;20.85;46.54
57288;BME280;43141;52.010;4.362;2022-08-07T11:38:39;102583.13;;;20.73;46.74
57288;BME280;43141;52.010;4.362;2022-08-07T11:41:18;102578.22;;;20.81;47.12
57288;BME280;43141;52.010;4.362;2022-08-07T11:46:37;102560.38;;;20.94;47.10
57288;BME280;43141;52.010;4.362;2022-08-07T12:00:10;102564.94;;;21.05;46.83
57288;BME280;43141;52.010;4.362;2022-08-07T12:08:49;102570.13;;;21.18;47.23
57288;BME280;43141;52.010;4.362;2022-08-07T12:11:21;102560.94;;;21.18;46.89
57288;BME280;43141;52.010;4.362;2022-08-07T12:13:58;102564.38;;;21.25;47.54
57288;BME280;43141;52.010;4.362;2022-08-07T12:16:50;102570.28;;;21.34;46.92
57288;BME280;43141;52.010;4.362;2022-08-07T12:19:42;102587.19;;;21.32;46.91
57288;BME280;43141;52.010;4.362;2022-08-07T12:22:11;102572.44;;;21.27;47.03
57288;BME280;43141;52.010;4.362;2022-08-07T12:28:04;102578.09;;;21.37;47.28
57288;BME280;43141;52.010;4.362;2022-08-07T12:30:39;102568.97;;;21.41;47.27
57288;BME280;43141;52.010;4.362;2022-08-07T12:33:09;102569.56;;;21.44;47.62
57288;BME280;43141;52.010;4.362;2022-08-07T12:35:42;102567.75;;;21.54;47.38
57288;BME280;43141;52.010;4.362;2022-08-07T12:38:10;102561.84;;;21.51;47.07
57288;BME280;43141;52.010;4.362;2022-08-07T12:40:37;102571.22;;;21.67;46.86
57288;BME280;43141;52.010;4.362;2022-08-07T12:43:07;102560.53;;;21.81;46.97
57288;BME280;43141;52.010;4.362;2022-08-07T12:54:31;102548.06;;;23.22;44.89
57288;BME280;43141;52.010;4.362;2022-08-07T12:57:05;102546.41;;;23.26;44.66
57288;BME280;43141;52.010;4.362;2022-08-07T12:59:32;102546.75;;;22.71;45.73
57288;BME280;43141;52.010;4.362;2022-08-07T13:10:22;102530.44;;;22.43;45.84
57288;BME280;43141;52.010;4.362;2022-08-07T13:13:06;102535.63;;;22.34;46.08
57288;BME280;43141;52.010;4.362;2022-08-07T13:15:55;102533.91;;;22.65;46.34
57288;BME280;43141;52.010;4.362;2022-08-07T13:21:17;102539.16;;;22.62;45.44
57288;BME280;43141;52.010;4.362;2022-08-07T13:26:45;102542.59;;;22.79;44.70
57288;BME280;43141;52.010;4.362;2022-08-07T13:31:57;102536.44;;;23.51;44.67
57288;BME280;43141;52.010;4.362;2022-08-07T13:37:07;102533.41;;;23.63;44.10
57288;BME280;43141;52.010;4.362;2022-08-07T13:42:26;102524.22;;;23.93;43.29
57288;BME280;43141;52.010;4.362;2022-08-07T13:44:53;102525.31;;;24.23;43.68
57288;BME280;43141;52.010;4.362;2022-08-07T13:47:20;102528.81;;;24.80;43.16
57288;BME280;43141;52.010;4.362;2022-08-07T13:49:50;102525.63;;;25.08;42.39
57288;BME280;43141;52.010;4.362;2022-08-07T13:52:17;102528.28;;;25.33;41.00
57288;BME280;43141;52.010;4.362;2022-08-07T13:54:45;102525.78;;;25.32;39.98
57288;BME280;43141;52.010;4.362;2022-08-07T13:57:11;102534.72;;;25.74;40.31
57288;BME280;43141;52.010;4.362;2022-08-07T13:59:42;102524.09;;;26.10;39.84
57288;BME280;43141;52.010;4.362;2022-08-07T14:02:11;102519.72;;;26.52;39.70
57288;BME280;43141;52.010;4.362;2022-08-07T14:07:07;102527.94;;;26.44;39.55
57288;BME280;43141;52.010;4.362;2022-08-07T14:09:35;102523.72;;;26.46;39.19
57288;BME280;43141;52.010;4.362;2022-08-07T14:12:04;102520.50;;;26.58;39.06
57288;BME280;43141;52.010;4.362;2022-08-07T14:14:42;102526.78;;;26.74;38.91
57288;BME280;43141;52.010;4.362;2022-08-07T14:17:15;102521.75;;;27.14;37.97
57288;BME280;43141;52.010;4.362;2022-08-07T14:19:46;102525.81;;;27.46;37.41
57288;BME280;43141;52.010;4.362;2022-08-07T14:22:17;102528.97;;;26.24;38.98
57288;BME280;43141;52.010;4.362;2022-08-07T14:24:47;102544.47;;;25.36;40.23
57288;BME280;43141;52.010;4.362;2022-08-07T14:27:15;102540.69;;;25.06;41.87
57288;BME280;43141;52.010;4.362;2022-08-07T14:29:54;102538.38;;;25.24;41.16
57288;BME280;43141;52.010;4.362;2022-08-07T14:32:25;102542.72;;;24.91;41.14
57288;BME280;43141;52.010;4.362;2022-08-07T14:34:53;102549.44;;;25.90;39.97
57288;BME280;43141;52.010;4.362;2022-08-07T14:37:20;102532.09;;;27.38;37.93
57288;BME280;43141;52.010;4.362;2022-08-07T14:39:47;102521.00;;;27.66;38.15
57288;BME280;43141;52.010;4.362;2022-08-07T14:42:13;102522.28;;;27.16;37.42
57288;BME280;43141;52.010;4.362;2022-08-07T14:44:46;102518.41;;;27.89;36.83
57288;BME280;43141;52.010;4.362;2022-08-07T14:47:18;102518.09;;;28.79;35.27
57288;BME280;43141;52.010;4.362;2022-08-07T14:49:47;102519.19;;;27.56;36.39
57288;BME280;43141;52.010;4.362;2022-08-07T14:52:15;102537.50;;;25.74;38.94
57288;BME280;43141;52.010;4.362;2022-08-07T14:54:44;102521.31;;;27.07;38.24
57288;BME280;43141;52.010;4.362;2022-08-07T14:57:13;102519.91;;;26.61;38.88
57288;BME280;43141;52.010;4.362;2022-08-07T14:59:40;102517.06;;;28.00;37.56
57288;BME280;43141;52.010;4.362;2022-08-07T15:02:13;102517.50;;;29.78;35.32
57288;BME280;43141;52.010;4.362;2022-08-07T15:04:41;102518.81;;;30.34;34.05
57288;BME280;43141;52.010;4.362;2022-08-07T15:07:10;102517.06;;;28.75;35.12
57288;BME280;43141;52.010;4.362;2022-08-07T15:09:41;102519.25;;;26.16;38.58
57288;BME280;43141;52.010;4.362;2022-08-07T15:12:10;102528.16;;;25.04;40.39
57288;BME280;43141;52.010;4.362;2022-08-07T15:15:15;102529.19;;;24.63;41.48
57288;BME280;43141;52.010;4.362;2022-08-07T15:17:41;102514.22;;;26.18;40.27
57288;BME280;43141;52.010;4.362;2022-08-07T15:20:21;102509.88;;;27.23;38.84
57288;BME280;43141;52.010;4.362;2022-08-07T15:22:52;102500.84;;;29.36;35.74
57288;BME280;43141;52.010;4.362;2022-08-07T15:25:22;102500.97;;;30.79;33.36
57288;BME280;43141;52.010;4.362;2022-08-07T15:27:55;102492.72;;;32.57;31.93
57288;BME280;43141;52.010;4.362;2022-08-07T15:30:25;102509.59;;;31.97;33.24
57288;BME280;43141;52.010;4.362;2022-08-07T15:32:52;102504.84;;;31.62;32.99
57288;BME280;43141;52.010;4.362;2022-08-07T15:35:19;102499.22;;;32.57;31.56
57288;BME280;43141;52.010;4.362;2022-08-07T15:37:48;102492.78;;;32.78;31.84
57288;BME280;43141;52.010;4.362;2022-08-07T15:40:19;102494.59;;;32.14;30.87
57288;BME280;43141;52.010;4.362;2022-08-07T15:42:47;102487.47;;;33.61;30.24
57288;BME280;43141;52.010;4.362;2022-08-07T15:48:04;102484.47;;;33.24;30.09
57288;BME280;43141;52.010;4.362;2022-08-07T15:50:45;102484.63;;;32.08;31.41
57288;BME280;43141;52.010;4.362;2022-08-07T15:53:15;102480.91;;;30.98;32.97
57288;BME280;43141;52.010;4.362;2022-08-07T15:55:46;102487.97;;;29.89;34.74
57288;BME280;43141;52.010;4.362;2022-08-07T15:58:17;102491.75;;;29.25;35.73
57288;BME280;43141;52.010;4.362;2022-08-07T16:00:47;102479.06;;;30.67;33.62
57288;BME280;43141;52.010;4.362;2022-08-07T16:03:16;102490.31;;;28.77;34.13